Погода Трелевна 2 недели

Чубут, Аргентина

31 января-12 февраля
  • 31января
    Сегодня
    +12°
    +23°
    Ясно и безоблачно
    ВремяПогодаТемператураВлажностьДавлениеВетер, м/сВероятность осадков
    00:00Ясно и безоблачно+16°C73 %763 мм4.1 м/с2 %
    03:00Ясно и безоблачно+13°C84 %763 мм2.1 м/с5 %
    06:00Ясно и безоблачно+13°C87 %764 мм1.0 м/с5 %
    09:00Ясно и безоблачно+17°C65 %764 мм1.7 м/с5 %
    12:00Ясно и безоблачно+22°C32 %764 мм4.3 м/с5 %
    15:00Ясно и безоблачно+23°C34 %763 мм7.2 м/с5 %
    18:00Ясно и безоблачно+21°C40 %763 мм7.3 м/с5 %
    21:00Ясно и безоблачно+18°C52 %763 мм5.7 м/с5 %
  • 01февраля
    Среда
    +15°
    +28°
    Ясно и безоблачно
    ВремяПогодаТемператураВлажностьДавлениеВетер, м/сВероятность осадков
    00:00Ясно и безоблачно+16°C59 %763 мм4.8 м/с5 %
    03:00Ясно и безоблачно+13°C78 %762 мм3.5 м/с5 %
    06:00Ясно и безоблачно+12°C85 %762 мм4.3 м/с5 %
    09:00Облачно с прояснениями+19°C60 %761 мм6.4 м/с7 %
    12:00Облачно с прояснениями+24°C36 %760 мм6.2 м/с11 %
    15:00Ясно и безоблачно+28°C32 %759 мм7.0 м/с14 %
    18:00Практически безоблачно+25°C36 %759 мм7.9 м/с22 %
    21:00Ясно и безоблачно+22°C50 %760 мм5.3 м/с10 %
  • 02февраля
    Четверг
    +14°
    +31°
    Практически безоблачно
    ВремяПогодаТемператураВлажностьДавлениеВетер, м/сВероятность осадков
    00:00Ясно и безоблачно+18°C73 %761 мм3.0 м/с4 %
    03:00Ясно и безоблачно+16°C89 %760 мм2.3 м/с5 %
    06:00Облачно с прояснениями+15°C93 %760 мм2.1 м/с5 %
    09:00Небольшая облачность+21°C57 %760 мм4.2 м/с5 %
    12:00Облачно с прояснениями+28°C32 %760 мм4.0 м/с9 %
    15:00Практически безоблачно+29°C37 %760 мм7.7 м/с16 %
    18:00Ясно и безоблачно+26°C31 %760 мм7.1 м/с23 %
    21:00Ясно и безоблачно+21°C44 %761 мм3.9 м/с11 %
  • 03февраля
    Пятница
    +21°
    +33°
    Ясно и безоблачно
    ВремяПогодаТемператураВлажностьДавлениеВетер, м/сВероятность осадков
    00:00Ясно и безоблачно+17°C70 %762 мм1.9 м/с5 %
    03:00Ясно и безоблачно+16°C63 %762 мм0.5 м/с5 %
    06:00Ясно и безоблачно+15°C68 %762 мм1.4 м/с5 %
    09:00Практически безоблачно+23°C41 %762 мм2.5 м/с5 %
    12:00Ясно и безоблачно+29°C26 %762 мм3.8 м/с5 %
    15:00Ясно и безоблачно+33°C15 %759 мм6.3 м/с5 %
    18:00Ясно и безоблачно+32°C17 %758 мм6.6 м/с5 %
    21:00Практически безоблачно+28°C24 %758 мм4.8 м/с5 %
Мы используем cookies
Соглашаюсь